sensor_id;sensor_type;location;lat;lon;timestamp;P1;durP1;ratioP1;P2;durP2;ratioP2
27804;SDS011;15183;51.350;11.102;2023-04-01T00:01:03;4.95;;;2.17;;
27804;SDS011;15183;51.350;11.102;2023-04-01T00:03:31;3.70;;;1.80;;
27804;SDS011;15183;51.350;11.102;2023-04-01T00:05:59;4.75;;;1.58;;
27804;SDS011;15183;51.350;11.102;2023-04-01T00:08:26;3.63;;;1.98;;
27804;SDS011;15183;51.350;11.102;2023-04-01T00:10:53;5.10;;;2.10;;
27804;SDS011;15183;51.350;11.102;2023-04-01T00:13:20;3.97;;;1.65;;
27804;SDS011;15183;51.350;11.102;2023-04-01T00:15:47;5.40;;;2.17;;
27804;SDS011;15183;51.350;11.102;2023-04-01T00:18:14;5.35;;;2.63;;
27804;SDS011;15183;51.350;11.102;2023-04-01T00:20:47;2.90;;;1.75;;
27804;SDS011;15183;51.350;11.102;2023-04-01T00:23:16;3.17;;;1.17;;
27804;SDS011;15183;51.350;11.102;2023-04-01T00:25:44;3.40;;;1.38;;
27804;SDS011;15183;51.350;11.102;2023-04-01T00:28:12;5.53;;;2.20;;
27804;SDS011;15183;51.350;11.102;2023-04-01T00:30:40;3.67;;;1.85;;
27804;SDS011;15183;51.350;11.102;2023-04-01T00:33:06;2.78;;;1.45;;
27804;SDS011;15183;51.350;11.102;2023-04-01T00:35:33;2.63;;;1.30;;
27804;SDS011;15183;51.350;11.102;2023-04-01T00:38:00;5.82;;;2.30;;
27804;SDS011;15183;51.350;11.102;2023-04-01T00:43:19;4.15;;;1.77;;
27804;SDS011;15183;51.350;11.102;2023-04-01T00:45:48;6.45;;;1.83;;
27804;SDS011;15183;51.350;11.102;2023-04-01T00:48:19;3.53;;;2.00;;
27804;SDS011;15183;51.350;11.102;2023-04-01T00:50:52;5.88;;;2.42;;
27804;SDS011;15183;51.350;11.102;2023-04-01T00:53:33;3.78;;;1.95;;
27804;SDS011;15183;51.350;11.102;2023-04-01T00:56:17;7.28;;;1.67;;
27804;SDS011;15183;51.350;11.102;2023-04-01T00:59:12;4.55;;;1.58;;
27804;SDS011;15183;51.350;11.102;2023-04-01T01:01:46;5.30;;;1.95;;
27804;SDS011;15183;51.350;11.102;2023-04-01T01:04:22;2.60;;;1.30;;
27804;SDS011;15183;51.350;11.102;2023-04-01T01:16:03;6.38;;;1.95;;
27804;SDS011;15183;51.350;11.102;2023-04-01T01:18:49;5.07;;;1.50;;
27804;SDS011;15183;51.350;11.102;2023-04-01T01:24:36;2.08;;;1.42;;
27804;SDS011;15183;51.350;11.102;2023-04-01T01:27:17;7.10;;;1.63;;
27804;SDS011;15183;51.350;11.102;2023-04-01T01:29:51;5.75;;;2.00;;
27804;SDS011;15183;51.350;11.102;2023-04-01T01:33:01;1.70;;;0.90;;
27804;SDS011;15183;51.350;11.102;2023-04-01T01:35:48;3.65;;;1.40;;
27804;SDS011;15183;51.350;11.102;2023-04-01T01:38:18;3.58;;;1.30;;
27804;SDS011;15183;51.350;11.102;2023-04-01T01:40:52;4.03;;;1.40;;
27804;SDS011;15183;51.350;11.102;2023-04-01T01:43:22;3.40;;;1.25;;
27804;SDS011;15183;51.350;11.102;2023-04-01T01:45:56;3.45;;;1.70;;
27804;SDS011;15183;51.350;11.102;2023-04-01T01:48:27;5.97;;;1.88;;
27804;SDS011;15183;51.350;11.102;2023-04-01T01:50:55;3.85;;;1.70;;
27804;SDS011;15183;51.350;11.102;2023-04-01T01:53:21;3.05;;;1.08;;
27804;SDS011;15183;51.350;11.102;2023-04-01T01:55:48;6.38;;;1.48;;
27804;SDS011;15183;51.350;11.102;2023-04-01T01:58:18;2.33;;;1.30;;
27804;SDS011;15183;51.350;11.102;2023-04-01T02:00:57;3.70;;;1.35;;
27804;SDS011;15183;51.350;11.102;2023-04-01T02:03:31;3.92;;;1.33;;
27804;SDS011;15183;51.350;11.102;2023-04-01T02:06:04;4.13;;;1.40;;
27804;SDS011;15183;51.350;11.102;2023-04-01T02:08:38;2.05;;;1.30;;
27804;SDS011;15183;51.350;11.102;2023-04-01T02:11:12;4.03;;;1.73;;
27804;SDS011;15183;51.350;11.102;2023-04-01T02:13:52;5.40;;;1.10;;
27804;SDS011;15183;51.350;11.102;2023-04-01T02:16:42;2.63;;;1.40;;
27804;SDS011;15183;51.350;11.102;2023-04-01T02:19:19;2.45;;;1.73;;
27804;SDS011;15183;51.350;11.102;2023-04-01T02:21:52;2.05;;;1.25;;
27804;SDS011;15183;51.350;11.102;2023-04-01T02:24:25;2.70;;;1.50;;
27804;SDS011;15183;51.350;11.102;2023-04-01T02:26:54;2.15;;;1.25;;
27804;SDS011;15183;51.350;11.102;2023-04-01T02:29:21;2.60;;;1.20;;
27804;SDS011;15183;51.350;11.102;2023-04-01T02:31:51;3.05;;;1.20;;
27804;SDS011;15183;51.350;11.102;2023-04-01T02:34:19;2.05;;;1.17;;
27804;SDS011;15183;51.350;11.102;2023-04-01T02:36:48;1.23;;;1.00;;
27804;SDS011;15183;51.350;11.102;2023-04-01T02:39:15;2.42;;;1.20;;
27804;SDS011;15183;51.350;11.102;2023-04-01T02:41:43;7.25;;;1.38;;
27804;SDS011;15183;51.350;11.102;2023-04-01T02:44:12;5.25;;;1.90;;
27804;SDS011;15183;51.350;11.102;2023-04-01T02:46:41;2.38;;;1.50;;
27804;SDS011;15183;51.350;11.102;2023-04-01T02:49:07;3.13;;;1.10;;
27804;SDS011;15183;51.350;11.102;2023-04-01T02:51:34;2.63;;;1.33;;
27804;SDS011;15183;51.350;11.102;2023-04-01T02:54:00;3.00;;;1.80;;
27804;SDS011;15183;51.350;11.102;2023-04-01T02:56:27;5.50;;;2.45;;
27804;SDS011;15183;51.350;11.102;2023-04-01T02:58:53;6.05;;;1.77;;
27804;SDS011;15183;51.350;11.102;2023-04-01T03:01:20;3.78;;;1.80;;
27804;SDS011;15183;51.350;11.102;2023-04-01T03:03:47;1.80;;;1.42;;
27804;SDS011;15183;51.350;11.102;2023-04-01T03:06:14;3.95;;;1.85;;
27804;SDS011;15183;51.350;11.102;2023-04-01T03:08:42;4.45;;;1.92;;
27804;SDS011;15183;51.350;11.102;2023-04-01T03:11:10;3.83;;;1.98;;
27804;SDS011;15183;51.350;11.102;2023-04-01T03:13:37;4.03;;;1.85;;
27804;SDS011;15183;51.350;11.102;2023-04-01T03:16:03;1.90;;;1.20;;
27804;SDS011;15183;51.350;11.102;2023-04-01T03:18:30;3.15;;;1.17;;
27804;SDS011;15183;51.350;11.102;2023-04-01T03:20:56;4.32;;;1.70;;
27804;SDS011;15183;51.350;11.102;2023-04-01T03:23:23;5.55;;;2.00;;
27804;SDS011;15183;51.350;11.102;2023-04-01T03:25:50;3.42;;;1.60;;
27804;SDS011;15183;51.350;11.102;2023-04-01T03:28:16;4.90;;;1.75;;
27804;SDS011;15183;51.350;11.102;2023-04-01T03:30:43;2.10;;;1.40;;
27804;SDS011;15183;51.350;11.102;2023-04-01T03:33:09;3.10;;;1.58;;
27804;SDS011;15183;51.350;11.102;2023-04-01T03:35:36;3.58;;;1.85;;
27804;SDS011;15183;51.350;11.102;2023-04-01T03:38:02;3.00;;;1.63;;
27804;SDS011;15183;51.350;11.102;2023-04-01T03:40:28;3.17;;;1.30;;
27804;SDS011;15183;51.350;11.102;2023-04-01T03:42:55;3.25;;;1.70;;
27804;SDS011;15183;51.350;11.102;2023-04-01T03:45:21;3.20;;;1.67;;
27804;SDS011;15183;51.350;11.102;2023-04-01T03:47:48;4.88;;;1.42;;
27804;SDS011;15183;51.350;11.102;2023-04-01T03:50:15;2.70;;;1.40;;
27804;SDS011;15183;51.350;11.102;2023-04-01T03:52:41;2.80;;;1.30;;
27804;SDS011;15183;51.350;11.102;2023-04-01T03:55:07;4.20;;;1.60;;
27804;SDS011;15183;51.350;11.102;2023-04-01T03:57:34;3.90;;;1.15;;
27804;SDS011;15183;51.350;11.102;2023-04-01T04:00:00;3.45;;;1.60;;
27804;SDS011;15183;51.350;11.102;2023-04-01T04:02:27;5.45;;;1.40;;
27804;SDS011;15183;51.350;11.102;2023-04-01T04:04:54;2.20;;;0.98;;
27804;SDS011;15183;51.350;11.102;2023-04-01T04:07:20;4.65;;;1.33;;
27804;SDS011;15183;51.350;11.102;2023-04-01T04:09:46;1.98;;;1.30;;
27804;SDS011;15183;51.350;11.102;2023-04-01T04:12:13;3.22;;;1.15;;
27804;SDS011;15183;51.350;11.102;2023-04-01T04:14:39;3.22;;;1.92;;
27804;SDS011;15183;51.350;11.102;2023-04-01T04:17:06;3.17;;;0.93;;
27804;SDS011;15183;51.350;11.102;2023-04-01T04:19:33;2.17;;;0.98;;
27804;SDS011;15183;51.350;11.102;2023-04-01T04:22:00;4.32;;;1.27;;
27804;SDS011;15183;51.350;11.102;2023-04-01T04:24:27;3.78;;;1.20;;
27804;SDS011;15183;51.350;11.102;2023-04-01T04:26:53;1.67;;;1.20;;
27804;SDS011;15183;51.350;11.102;2023-04-01T04:29:19;3.25;;;1.33;;
27804;SDS011;15183;51.350;11.102;2023-04-01T04:31:46;6.03;;;1.13;;
27804;SDS011;15183;51.350;11.102;2023-04-01T04:34:12;3.05;;;1.45;;
27804;SDS011;15183;51.350;11.102;2023-04-01T04:36:39;3.15;;;1.25;;
27804;SDS011;15183;51.350;11.102;2023-04-01T04:39:05;1.67;;;1.05;;
27804;SDS011;15183;51.350;11.102;2023-04-01T04:41:31;4.55;;;1.55;;
27804;SDS011;15183;51.350;11.102;2023-04-01T04:43:58;2.80;;;1.45;;
27804;SDS011;15183;51.350;11.102;2023-04-01T04:46:25;2.88;;;1.08;;
27804;SDS011;15183;51.350;11.102;2023-04-01T04:48:51;4.10;;;1.23;;
27804;SDS011;15183;51.350;11.102;2023-04-01T04:51:18;2.88;;;0.90;;
27804;SDS011;15183;51.350;11.102;2023-04-01T04:53:46;3.08;;;1.20;;
27804;SDS011;15183;51.350;11.102;2023-04-01T04:56:17;5.07;;;1.48;;
27804;SDS011;15183;51.350;11.102;2023-04-01T04:58:47;3.88;;;1.30;;
27804;SDS011;15183;51.350;11.102;2023-04-01T05:01:15;3.17;;;1.25;;
27804;SDS011;15183;51.350;11.102;2023-04-01T05:03:42;2.83;;;0.90;;
27804;SDS011;15183;51.350;11.102;2023-04-01T05:06:09;3.33;;;1.17;;
27804;SDS011;15183;51.350;11.102;2023-04-01T05:08:38;2.58;;;1.33;;
27804;SDS011;15183;51.350;11.102;2023-04-01T05:11:10;2.08;;;0.98;;
27804;SDS011;15183;51.350;11.102;2023-04-01T05:13:40;1.83;;;1.08;;
27804;SDS011;15183;51.350;11.102;2023-04-01T05:16:11;5.00;;;1.10;;
27804;SDS011;15183;51.350;11.102;2023-04-01T05:18:41;5.47;;;0.98;;
27804;SDS011;15183;51.350;11.102;2023-04-01T05:21:08;4.57;;;1.00;;
27804;SDS011;15183;51.350;11.102;2023-04-01T05:23:36;2.42;;;0.80;;
27804;SDS011;15183;51.350;11.102;2023-04-01T05:26:04;2.83;;;1.00;;
27804;SDS011;15183;51.350;11.102;2023-04-01T05:28:32;3.63;;;1.20;;
27804;SDS011;15183;51.350;11.102;2023-04-01T05:30:59;2.05;;;0.90;;
27804;SDS011;15183;51.350;11.102;2023-04-01T05:33:27;2.55;;;0.90;;
27804;SDS011;15183;51.350;11.102;2023-04-01T05:35:54;4.63;;;3.15;;
27804;SDS011;15183;51.350;11.102;2023-04-01T05:38:20;5.95;;;3.00;;
27804;SDS011;15183;51.350;11.102;2023-04-01T05:40:47;5.90;;;3.13;;
27804;SDS011;15183;51.350;11.102;2023-04-01T05:43:13;4.78;;;2.08;;
27804;SDS011;15183;51.350;11.102;2023-04-01T05:45:40;4.63;;;2.33;;
27804;SDS011;15183;51.350;11.102;2023-04-01T05:48:06;4.80;;;3.05;;
27804;SDS011;15183;51.350;11.102;2023-04-01T05:50:32;6.18;;;3.15;;
27804;SDS011;15183;51.350;11.102;2023-04-01T05:52:59;3.78;;;2.22;;
27804;SDS011;15183;51.350;11.102;2023-04-01T05:55:25;5.03;;;1.98;;
27804;SDS011;15183;51.350;11.102;2023-04-01T05:57:52;4.85;;;2.40;;
27804;SDS011;15183;51.350;11.102;2023-04-01T06:00:18;4.95;;;2.30;;
27804;SDS011;15183;51.350;11.102;2023-04-01T06:02:45;5.00;;;1.38;;
27804;SDS011;15183;51.350;11.102;2023-04-01T06:05:13;4.20;;;2.30;;
27804;SDS011;15183;51.350;11.102;2023-04-01T06:07:46;5.20;;;1.63;;
27804;SDS011;15183;51.350;11.102;2023-04-01T06:10:17;4.38;;;2.60;;
27804;SDS011;15183;51.350;11.102;2023-04-01T06:13:29;4.63;;;2.45;;
27804;SDS011;15183;51.350;11.102;2023-04-01T06:16:12;5.75;;;3.10;;
27804;SDS011;15183;51.350;11.102;2023-04-01T06:22:08;4.18;;;2.40;;
27804;SDS011;15183;51.350;11.102;2023-04-01T06:28:00;5.28;;;2.45;;
27804;SDS011;15183;51.350;11.102;2023-04-01T06:30:47;3.90;;;2.47;;
27804;SDS011;15183;51.350;11.102;2023-04-01T06:33:25;4.30;;;1.90;;
27804;SDS011;15183;51.350;11.102;2023-04-01T06:38:53;5.65;;;2.35;;
27804;SDS011;15183;51.350;11.102;2023-04-01T06:48:29;6.43;;;5.80;;
27804;SDS011;15183;51.350;11.102;2023-04-01T06:54:21;4.43;;;2.67;;
27804;SDS011;15183;51.350;11.102;2023-04-01T06:56:58;3.70;;;2.00;;
27804;SDS011;15183;51.350;11.102;2023-04-01T06:59:34;2.17;;;1.27;;
27804;SDS011;15183;51.350;11.102;2023-04-01T07:04:37;3.33;;;2.10;;
27804;SDS011;15183;51.350;11.102;2023-04-01T07:07:28;5.80;;;2.60;;
27804;SDS011;15183;51.350;11.102;2023-04-01T07:10:02;2.88;;;1.88;;
27804;SDS011;15183;51.350;11.102;2023-04-01T07:12:38;3.63;;;1.52;;
27804;SDS011;15183;51.350;11.102;2023-04-01T07:17:57;1.90;;;1.50;;
27804;SDS011;15183;51.350;11.102;2023-04-01T07:20:35;4.30;;;2.13;;
27804;SDS011;15183;51.350;11.102;2023-04-01T07:23:46;4.50;;;1.60;;
27804;SDS011;15183;51.350;11.102;2023-04-01T07:29:02;3.97;;;1.67;;
27804;SDS011;15183;51.350;11.102;2023-04-01T07:34:18;2.85;;;1.95;;
27804;SDS011;15183;51.350;11.102;2023-04-01T07:46:43;8.57;;;4.43;;
27804;SDS011;15183;51.350;11.102;2023-04-01T07:50:00;4.22;;;2.63;;
27804;SDS011;15183;51.350;11.102;2023-04-01T07:52:51;3.92;;;2.30;;
27804;SDS011;15183;51.350;11.102;2023-04-01T07:55:45;5.40;;;2.83;;
27804;SDS011;15183;51.350;11.102;2023-04-01T07:58:37;6.05;;;2.50;;
27804;SDS011;15183;51.350;11.102;2023-04-01T08:01:20;3.53;;;1.88;;
27804;SDS011;15183;51.350;11.102;2023-04-01T08:15:36;5.70;;;3.33;;
27804;SDS011;15183;51.350;11.102;2023-04-01T08:21:39;11.48;;;6.53;;
27804;SDS011;15183;51.350;11.102;2023-04-01T08:27:05;9.60;;;5.50;;
27804;SDS011;15183;51.350;11.102;2023-04-01T08:32:57;14.35;;;7.68;;
27804;SDS011;15183;51.350;11.102;2023-04-01T08:35:50;21.05;;;11.55;;
27804;SDS011;15183;51.350;11.102;2023-04-01T08:38:29;9.60;;;5.75;;
27804;SDS011;15183;51.350;11.102;2023-04-01T08:41:20;7.93;;;4.97;;
27804;SDS011;15183;51.350;11.102;2023-04-01T08:44:20;30.50;;;15.57;;
27804;SDS011;15183;51.350;11.102;2023-04-01T08:50:05;18.23;;;10.50;;
27804;SDS011;15183;51.350;11.102;2023-04-01T09:01:51;9.00;;;6.30;;
27804;SDS011;15183;51.350;11.102;2023-04-01T09:16:41;3.83;;;2.53;;
27804;SDS011;15183;51.350;11.102;2023-04-01T09:33:42;3.28;;;2.40;;
27804;SDS011;15183;51.350;11.102;2023-04-01T09:37:07;8.10;;;6.22;;
27804;SDS011;15183;51.350;11.102;2023-04-01T09:51:42;8.15;;;4.78;;
27804;SDS011;15183;51.350;11.102;2023-04-01T09:54:46;6.00;;;4.25;;
27804;SDS011;15183;51.350;11.102;2023-04-01T10:15:19;3.75;;;2.78;;
27804;SDS011;15183;51.350;11.102;2023-04-01T10:21:17;4.88;;;3.53;;
27804;SDS011;15183;51.350;11.102;2023-04-01T10:30:23;6.45;;;4.65;;
27804;SDS011;15183;51.350;11.102;2023-04-01T10:36:35;2.75;;;1.92;;
27804;SDS011;15183;51.350;11.102;2023-04-01T11:03:38;1.50;;;1.30;;
27804;SDS011;15183;51.350;11.102;2023-04-01T11:12:20;3.05;;;2.60;;
27804;SDS011;15183;51.350;11.102;2023-04-01T11:30:20;2.08;;;1.38;;
27804;SDS011;15183;51.350;11.102;2023-04-01T11:58:18;2.63;;;2.33;;
27804;SDS011;15183;51.350;11.102;2023-04-01T12:04:12;4.40;;;3.22;;
27804;SDS011;15183;51.350;11.102;2023-04-01T12:16:37;4.93;;;3.55;;
27804;SDS011;15183;51.350;11.102;2023-04-01T12:19:46;2.38;;;2.00;;
27804;SDS011;15183;51.350;11.102;2023-04-01T12:22:46;5.80;;;3.28;;
27804;SDS011;15183;51.350;11.102;2023-04-01T12:30:58;2.00;;;1.60;;
27804;SDS011;15183;51.350;11.102;2023-04-01T12:39:28;2.08;;;1.50;;
27804;SDS011;15183;51.350;11.102;2023-04-01T12:48:08;1.88;;;1.52;;
27804;SDS011;15183;51.350;11.102;2023-04-01T12:54:31;1.65;;;1.20;;
27804;SDS011;15183;51.350;11.102;2023-04-01T13:08:55;2.37;;;1.90;;
27804;SDS011;15183;51.350;11.102;2023-04-01T13:14:46;1.35;;;1.02;;
27804;SDS011;15183;51.350;11.102;2023-04-01T13:20:22;1.73;;;1.23;;
27804;SDS011;15183;51.350;11.102;2023-04-01T13:22:57;1.77;;;1.33;;
27804;SDS011;15183;51.350;11.102;2023-04-01T13:28:26;2.42;;;1.52;;
27804;SDS011;15183;51.350;11.102;2023-04-01T13:31:12;2.10;;;1.60;;
27804;SDS011;15183;51.350;11.102;2023-04-01T13:40:26;4.70;;;0.98;;
27804;SDS011;15183;51.350;11.102;2023-04-01T13:43:11;2.45;;;1.38;;
27804;SDS011;15183;51.350;11.102;2023-04-01T13:46:15;2.33;;;2.08;;
27804;SDS011;15183;51.350;11.102;2023-04-01T13:54:53;2.92;;;2.28;;
27804;SDS011;15183;51.350;11.102;2023-04-01T14:04:02;1.20;;;1.10;;
27804;SDS011;15183;51.350;11.102;2023-04-01T14:06:49;1.08;;;0.98;;
27804;SDS011;15183;51.350;11.102;2023-04-01T14:10:13;0.85;;;0.70;;
27804;SDS011;15183;51.350;11.102;2023-04-01T14:13:20;2.92;;;1.90;;
27804;SDS011;15183;51.350;11.102;2023-04-01T14:16:33;1.38;;;1.13;;
27804;SDS011;15183;51.350;11.102;2023-04-01T14:22:51;3.55;;;2.58;;
27804;SDS011;15183;51.350;11.102;2023-04-01T14:34:32;5.80;;;4.28;;
27804;SDS011;15183;51.350;11.102;2023-04-01T14:37:07;7.00;;;4.00;;
27804;SDS011;15183;51.350;11.102;2023-04-01T14:40:26;2.58;;;2.35;;
27804;SDS011;15183;51.350;11.102;2023-04-01T14:43:20;2.30;;;1.73;;
27804;SDS011;15183;51.350;11.102;2023-04-01T14:49:32;2.15;;;1.70;;
27804;SDS011;15183;51.350;11.102;2023-04-01T14:52:08;5.30;;;3.65;;
27804;SDS011;15183;51.350;11.102;2023-04-01T14:54:44;4.30;;;3.47;;
27804;SDS011;15183;51.350;11.102;2023-04-01T14:59:54;3.28;;;2.97;;
27804;SDS011;15183;51.350;11.102;2023-04-01T15:02:56;5.32;;;3.63;;
27804;SDS011;15183;51.350;11.102;2023-04-01T15:11:48;9.57;;;6.03;;
27804;SDS011;15183;51.350;11.102;2023-04-01T15:14:39;12.75;;;8.25;;
27804;SDS011;15183;51.350;11.102;2023-04-01T15:26:11;6.10;;;2.42;;
27804;SDS011;15183;51.350;11.102;2023-04-01T15:28:49;6.15;;;3.95;;
27804;SDS011;15183;51.350;11.102;2023-04-01T15:31:35;2.45;;;1.63;;
27804;SDS011;15183;51.350;11.102;2023-04-01T15:34:26;2.40;;;1.85;;
27804;SDS011;15183;51.350;11.102;2023-04-01T15:37:04;2.80;;;2.20;;
27804;SDS011;15183;51.350;11.102;2023-04-01T15:39:57;5.22;;;4.32;;
27804;SDS011;15183;51.350;11.102;2023-04-01T15:49:22;2.20;;;2.00;;
27804;SDS011;15183;51.350;11.102;2023-04-01T15:57:52;6.00;;;4.75;;
27804;SDS011;15183;51.350;11.102;2023-04-01T16:11:41;13.18;;;7.00;;
27804;SDS011;15183;51.350;11.102;2023-04-01T16:14:59;7.28;;;5.03;;
27804;SDS011;15183;51.350;11.102;2023-04-01T16:18:05;7.07;;;5.00;;
27804;SDS011;15183;51.350;11.102;2023-04-01T16:27:06;11.07;;;7.93;;
27804;SDS011;15183;51.350;11.102;2023-04-01T16:29:58;12.82;;;8.65;;
27804;SDS011;15183;51.350;11.102;2023-04-01T16:33:01;8.60;;;6.40;;
27804;SDS011;15183;51.350;11.102;2023-04-01T16:41:34;5.85;;;4.40;;
27804;SDS011;15183;51.350;11.102;2023-04-01T16:44:20;9.70;;;5.93;;
27804;SDS011;15183;51.350;11.102;2023-04-01T16:46:56;7.47;;;4.85;;
27804;SDS011;15183;51.350;11.102;2023-04-01T16:49:32;4.80;;;3.55;;
27804;SDS011;15183;51.350;11.102;2023-04-01T16:52:30;13.45;;;8.65;;
27804;SDS011;15183;51.350;11.102;2023-04-01T16:55:15;5.80;;;5.15;;
27804;SDS011;15183;51.350;11.102;2023-04-01T16:57:55;8.45;;;6.40;;
27804;SDS011;15183;51.350;11.102;2023-04-01T17:00:26;4.18;;;3.78;;
27804;SDS011;15183;51.350;11.102;2023-04-01T17:03:08;10.93;;;7.78;;
27804;SDS011;15183;51.350;11.102;2023-04-01T17:05:46;8.80;;;6.22;;
27804;SDS011;15183;51.350;11.102;2023-04-01T17:11:00;3.55;;;3.25;;
27804;SDS011;15183;51.350;11.102;2023-04-01T17:19:24;7.20;;;4.20;;
27804;SDS011;15183;51.350;11.102;2023-04-01T17:25:47;6.22;;;4.22;;
27804;SDS011;15183;51.350;11.102;2023-04-01T17:29:04;3.03;;;2.45;;
27804;SDS011;15183;51.350;11.102;2023-04-01T17:37:44;3.35;;;2.53;;
27804;SDS011;15183;51.350;11.102;2023-04-01T17:48:53;4.22;;;2.60;;
27804;SDS011;15183;51.350;11.102;2023-04-01T17:58:22;6.47;;;4.80;;
27804;SDS011;15183;51.350;11.102;2023-04-01T18:04:07;2.72;;;2.53;;
27804;SDS011;15183;51.350;11.102;2023-04-01T18:19:27;2.47;;;1.15;;
27804;SDS011;15183;51.350;11.102;2023-04-01T18:22:09;3.45;;;1.45;;
27804;SDS011;15183;51.350;11.102;2023-04-01T18:27:45;2.72;;;1.25;;
27804;SDS011;15183;51.350;11.102;2023-04-01T18:30:30;2.53;;;2.28;;
27804;SDS011;15183;51.350;11.102;2023-04-01T18:33:01;4.53;;;2.17;;
27804;SDS011;15183;51.350;11.102;2023-04-01T18:39:02;4.95;;;3.28;;
27804;SDS011;15183;51.350;11.102;2023-04-01T18:44:27;6.00;;;4.50;;
27804;SDS011;15183;51.350;11.102;2023-04-01T18:53:10;7.68;;;4.60;;
27804;SDS011;15183;51.350;11.102;2023-04-01T18:55:52;8.32;;;5.13;;
27804;SDS011;15183;51.350;11.102;2023-04-01T18:58:29;9.00;;;4.60;;
27804;SDS011;15183;51.350;11.102;2023-04-01T19:03:38;12.13;;;8.32;;
27804;SDS011;15183;51.350;11.102;2023-04-01T19:06:32;11.98;;;6.95;;
27804;SDS011;15183;51.350;11.102;2023-04-01T19:18:18;18.60;;;10.18;;
27804;SDS011;15183;51.350;11.102;2023-04-01T19:21:10;21.88;;;12.02;;
27804;SDS011;15183;51.350;11.102;2023-04-01T19:27:16;25.65;;;13.45;;
27804;SDS011;15183;51.350;11.102;2023-04-01T19:35:35;21.42;;;11.77;;
27804;SDS011;15183;51.350;11.102;2023-04-01T19:38:21;19.02;;;9.18;;
27804;SDS011;15183;51.350;11.102;2023-04-01T19:46:46;23.40;;;11.75;;
27804;SDS011;15183;51.350;11.102;2023-04-01T19:58:12;7.32;;;4.35;;
27804;SDS011;15183;51.350;11.102;2023-04-01T20:05:04;3.83;;;2.75;;
27804;SDS011;15183;51.350;11.102;2023-04-01T20:07:33;3.22;;;1.88;;
27804;SDS011;15183;51.350;11.102;2023-04-01T20:16:21;0.88;;;0.88;;
27804;SDS011;15183;51.350;11.102;2023-04-01T20:18:55;1.55;;;1.17;;
27804;SDS011;15183;51.350;11.102;2023-04-01T20:24:05;1.33;;;1.23;;
27804;SDS011;15183;51.350;11.102;2023-04-01T20:26:45;3.95;;;1.85;;
27804;SDS011;15183;51.350;11.102;2023-04-01T20:35:47;2.47;;;2.28;;
27804;SDS011;15183;51.350;11.102;2023-04-01T20:44:47;3.10;;;2.90;;
27804;SDS011;15183;51.350;11.102;2023-04-01T20:47:44;3.20;;;3.00;;
27804;SDS011;15183;51.350;11.102;2023-04-01T20:50:29;4.22;;;3.05;;
27804;SDS011;15183;51.350;11.102;2023-04-01T20:53:28;3.95;;;3.58;;
27804;SDS011;15183;51.350;11.102;2023-04-01T20:58:51;3.50;;;3.20;;
27804;SDS011;15183;51.350;11.102;2023-04-01T21:07:20;4.00;;;3.70;;
27804;SDS011;15183;51.350;11.102;2023-04-01T21:10:34;4.63;;;4.23;;
27804;SDS011;15183;51.350;11.102;2023-04-01T21:13:25;6.35;;;4.80;;
27804;SDS011;15183;51.350;11.102;2023-04-01T21:16:23;5.00;;;4.50;;
27804;SDS011;15183;51.350;11.102;2023-04-01T21:26:04;4.07;;;3.75;;
27804;SDS011;15183;51.350;11.102;2023-04-01T21:35:05;3.88;;;2.40;;
27804;SDS011;15183;51.350;11.102;2023-04-01T21:43:43;3.22;;;2.97;;
27804;SDS011;15183;51.350;11.102;2023-04-01T21:46:54;3.05;;;2.83;;
27804;SDS011;15183;51.350;11.102;2023-04-01T21:56:15;3.63;;;3.33;;
27804;SDS011;15183;51.350;11.102;2023-04-01T22:08:20;4.00;;;3.60;;
27804;SDS011;15183;51.350;11.102;2023-04-01T22:11:10;4.38;;;3.97;;
27804;SDS011;15183;51.350;11.102;2023-04-01T22:16:54;4.40;;;4.00;;
27804;SDS011;15183;51.350;11.102;2023-04-01T22:22:52;4.63;;;4.22;;
27804;SDS011;15183;51.350;11.102;2023-04-01T22:31:05;5.15;;;4.65;;
27804;SDS011;15183;51.350;11.102;2023-04-01T22:36:40;4.57;;;4.18;;
27804;SDS011;15183;51.350;11.102;2023-04-01T22:39:40;4.28;;;3.88;;
27804;SDS011;15183;51.350;11.102;2023-04-01T22:43:01;4.38;;;3.97;;
27804;SDS011;15183;51.350;11.102;2023-04-01T22:46:08;4.32;;;3.92;;
27804;SDS011;15183;51.350;11.102;2023-04-01T22:49:13;3.58;;;3.28;;
27804;SDS011;15183;51.350;11.102;2023-04-01T22:52:11;3.60;;;3.30;;
27804;SDS011;15183;51.350;11.102;2023-04-01T22:54:56;4.15;;;3.75;;
27804;SDS011;15183;51.350;11.102;2023-04-01T23:00:05;3.10;;;2.83;;
27804;SDS011;15183;51.350;11.102;2023-04-01T23:02:42;3.10;;;2.85;;
27804;SDS011;15183;51.350;11.102;2023-04-01T23:05:30;2.83;;;2.63;;
27804;SDS011;15183;51.350;11.102;2023-04-01T23:08:04;3.20;;;2.90;;
27804;SDS011;15183;51.350;11.102;2023-04-01T23:11:03;2.60;;;2.40;;
27804;SDS011;15183;51.350;11.102;2023-04-01T23:13:41;3.42;;;3.13;;
27804;SDS011;15183;51.350;11.102;2023-04-01T23:16:20;3.65;;;3.35;;
27804;SDS011;15183;51.350;11.102;2023-04-01T23:19:15;4.47;;;3.78;;
27804;SDS011;15183;51.350;11.102;2023-04-01T23:21:59;5.00;;;4.50;;
27804;SDS011;15183;51.350;11.102;2023-04-01T23:25:23;5.47;;;4.97;;
27804;SDS011;15183;51.350;11.102;2023-04-01T23:35:48;6.10;;;5.50;;
27804;SDS011;15183;51.350;11.102;2023-04-01T23:38:20;5.70;;;5.20;;
27804;SDS011;15183;51.350;11.102;2023-04-01T23:40:51;5.72;;;5.22;;
27804;SDS011;15183;51.350;11.102;2023-04-01T23:45:55;4.05;;;3.60;;
27804;SDS011;15183;51.350;11.102;2023-04-01T23:48:28;4.55;;;3.50;;
27804;SDS011;15183;51.350;11.102;2023-04-01T23:51:03;3.65;;;3.35;;
27804;SDS011;15183;51.350;11.102;2023-04-01T23:54:02;3.78;;;3.47;;
27804;SDS011;15183;51.350;11.102;2023-04-01T23:56:56;3.80;;;3.50;;
27804;SDS011;15183;51.350;11.102;2023-04-01T23:59:33;3.00;;;2.80;;
